Aviation Digital Data Service (ADDS)

Output produced by METARs form (0333 UTC 19 July 2018)
found at http://www.aviationweather.gov/adds/metars/
 
KAPC 190254Z AUTO 19008KT 10SM CLR 18/14 A2990 RMK AO2 SLP115 T01780139 56002
KAPC 190154Z 19013KT 10SM CLR 20/14 A2990 RMK AO2 SLP115 T02000139
KAPC 190054Z AUTO 20013KT 10SM CLR 23/14 A2990 RMK AO2 SLP115 T02280144
KAPC 182354Z 19011KT 10SM CLR 24/15 A2990 RMK AO2 SLP117 T02390150 10256 20178 58017
KAPC 182254Z 20010KT 10SM CLR 24/16 A2992 RMK AO2 SLP123 T02440156
KAPC 182154Z 21011KT 10SM CLR 24/15 A2994 RMK AO2 SLP130 T02440150
KAPC 182054Z 19011KT 10SM CLR 24/15 A2995 RMK AO2 SLP135 T02390150 58015
KAPC 181954Z 20006KT 10SM CLR 22/15 A2997 RMK AO2 SLP139 T02220150